Schneifelwetter: Wetterstation Hallschlag, 537 m . NN
Wetterdaten: Montag, 12.04.2010
Datum Zeit Temp. A. Feuchte A. Luftdruck Regen Wind Richtung Richtung Sonnenschein Helligkeit T Regen Taupunkt Windchill
12.04.2010 00:01 1,2 C 89 % 1020 hPa 0,0 l/m 21,3 km/h (4 Bft) N-NO22.5 30 0 min 0 lux 0,00 min -0,4 C -8,6 C
12.04.2010 00:16 1,2 C 89 % 1020 hPa 0,0 l/m 24,4 km/h (4 Bft) NO22.5 35 0 min 0 lux 0,00 min -0,4 C -9,9 C
12.04.2010 00:31 1,2 C 89 % 1020 hPa 0,0 l/m 30,2 km/h (5 Bft) NO22.5 35 0 min 0 lux 0,00 min -0,4 C -11,8 C
12.04.2010 00:46 1,1 C 89 % 1020 hPa 0,0 l/m 27,1 km/h (4 Bft) N-NO22.5 30 0 min 0 lux 0,00 min -0,5 C -11,0 C
12.04.2010 01:01 0,9 C 89 % 1020 hPa 0,0 l/m 29,6 km/h (5 Bft) N-NO22.5 25 0 min 0 lux 0,00 min -0,7 C -12,0 C
12.04.2010 01:16 0,8 C 90 % 1020 hPa 0,0 l/m 29,8 km/h (5 Bft) N-NO22.5 25 0 min 0 lux 0,00 min -0,6 C -12,2 C
12.04.2010 01:31 0,8 C 90 % 1020 hPa 0,0 l/m 31,0 km/h (5 Bft) N-NO22.5 25 0 min 0 lux 0,00 min -0,6 C -12,6 C
12.04.2010 01:46 0,6 C 90 % 1020 hPa 0,0 l/m 28,4 km/h (4 Bft) N-NO22.5 20 0 min 0 lux 0,00 min -0,8 C -12,1 C
12.04.2010 02:01 0,3 C 91 % 1020 hPa 0,0 l/m 22,3 km/h (4 Bft) N-NO22.5 20 0 min 0 lux 0,00 min -1,0 C -10,3 C
12.04.2010 02:16 0,2 C 92 % 1019 hPa 0,0 l/m 19,9 km/h (4 Bft) N-NO22.5 15 0 min 0 lux 0,00 min -0,9 C -9,3 C
12.04.2010 02:31 0,2 C 93 % 1019 hPa 0,0 l/m 25,1 km/h (4 Bft) N-NO22.5 15 0 min 0 lux 0,00 min -0,8 C -11,5 C
12.04.2010 02:46 0,2 C 94 % 1019 hPa 0,0 l/m 23,3 km/h (4 Bft) N-NO22.5 15 0 min 0 lux 0,00 min -0,6 C -10,8 C
12.04.2010 03:01 0,4 C 94 % 1019 hPa 0,0 l/m 20,5 km/h (4 Bft) N-NO22.5 20 0 min 0 lux 0,00 min -0,5 C -9,3 C
12.04.2010 03:16 0,5 C 94 % 1019 hPa 0,0 l/m 20,2 km/h (4 Bft) N-NO22.5 25 0 min 0 lux 0,00 min -0,4 C -9,1 C
12.04.2010 03:31 0,4 C 93 % 1019 hPa 0,0 l/m 18,4 km/h (3 Bft) N-NO22.5 25 0 min 0 lux 0,00 min -0,6 C -8,3 C
12.04.2010 03:46 0,3 C 94 % 1019 hPa 0,0 l/m 20,6 km/h (4 Bft) N-NO22.5 20 0 min 0 lux 0,00 min -0,5 C -9,5 C
12.04.2010 04:01 0,4 C 95 % 1019 hPa 0,0 l/m 21,7 km/h (4 Bft) N-NO67.5 15 0 min 0 lux 0,00 min -0,3 C -9,9 C
12.04.2010 04:16 0,7 C 95 % 1019 hPa 0,0 l/m 25,8 km/h (4 Bft) N-NO22.5 15 0 min 0 lux 0,00 min -0,0 C -11,1 C
12.04.2010 04:31 0,5 C 94 % 1018 hPa 0,0 l/m 21,4 km/h (4 Bft) N-NO67.5 15 0 min 0 lux 0,00 min -0,4 C -9,6 C
12.04.2010 04:46 0,3 C 95 % 1018 hPa 0,0 l/m 19,1 km/h (3 Bft) N22.5 5 0 min 0 lux 0,00 min -0,4 C -8,8 C
12.04.2010 05:01 0,4 C 95 % 1018 hPa 0,0 l/m 23,9 km/h (4 Bft) N-NO22.5 15 0 min 0 lux 0,00 min -0,3 C -10,8 C
12.04.2010 05:16 0,7 C 95 % 1018 hPa 0,0 l/m 24,0 km/h (4 Bft) N-NO22.5 20 0 min 0 lux 0,00 min -0,0 C -10,4 C
12.04.2010 05:31 0,8 C 96 % 1018 hPa 0,0 l/m 21,4 km/h (4 Bft) N-NO22.5 25 0 min 0 lux 0,00 min 0,2 C -9,2 C
12.04.2010 05:47 0,9 C 96 % 1018 hPa 0,0 l/m 22,9 km/h (4 Bft) N-NO22.5 30 0 min 0 lux 0,00 min 0,3 C -9,7 C
12.04.2010 06:02 0,9 C 96 % 1018 hPa 0,0 l/m 26,8 km/h (4 Bft) N-NO22.5 30 0 min 0 lux 0,00 min 0,3 C -11,1 C
12.04.2010 06:17 1,0 C 96 % 1018 hPa 0,0 l/m 25,5 km/h (4 Bft) N-NO22.5 25 0 min 0 lux 0,00 min 0,4 C -10,5 C
12.04.2010 06:32 1,0 C 96 % 1018 hPa 0,0 l/m 28,1 km/h (4 Bft) N-NO22.5 25 0 min 0 lux 0,00 min 0,4 C -11,4 C
12.04.2010 06:47 1,1 C 97 % 1018 hPa 0,0 l/m 26,5 km/h (4 Bft) N-NO22.5 20 0 min 68 lux 0,00 min 0,7 C -10,8 C
12.04.2010 07:02 1,2 C 97 % 1017 hPa 0,0 l/m 27,6 km/h (4 Bft) N-NO22.5 25 0 min 197 lux 0,00 min 0,8 C -11,0 C
12.04.2010 07:17 1,2 C 97 % 1018 hPa 0,0 l/m 28,6 km/h (4 Bft) N-NO22.5 30 0 min 373 lux 0,00 min 0,8 C -11,3 C
12.04.2010 07:32 1,1 C 97 % 1018 hPa 0,0 l/m 19,6 km/h (3 Bft) N-NO22.5 25 0 min 670 lux 0,00 min 0,7 C -8,0 C
12.04.2010 07:47 1,2 C 98 % 1018 hPa 0,0 l/m 27,4 km/h (4 Bft) N-NO45 30 0 min 1,06 klux 0,00 min 0,9 C -10,9 C
12.04.2010 08:02 1,2 C 98 % 1018 hPa 0,0 l/m 25,6 km/h (4 Bft) N-NO22.5 25 0 min 1,77 klux 0,00 min 0,9 C -10,3 C
12.04.2010 08:17 1,2 C 98 % 1018 hPa 0,0 l/m 25,2 km/h (4 Bft) N-NO22.5 25 0 min 2,27 klux 0,00 min 0,9 C -10,2 C
12.04.2010 08:32 1,3 C 99 % 1018 hPa 0,0 l/m 26,0 km/h (4 Bft) N-NO22.5 30 0 min 2,43 klux 0,00 min 1,2 C -10,3 C
12.04.2010 08:46 1,4 C 99 % 1018 hPa 0,0 l/m 24,0 km/h (4 Bft) N-NO22.5 25 0 min 3,88 klux 0,00 min 1,3 C -9,5 C
12.04.2010 09:01 1,5 C 99 % 1017 hPa 0,0 l/m 23,2 km/h (4 Bft) N-NO45 25 0 min 4,23 klux 0,00 min 1,4 C -9,0 C
12.04.2010 09:16 1,5 C 99 % 1017 hPa 0,0 l/m 21,4 km/h (4 Bft) N-NO22.5 15 0 min 6,87 klux 0,00 min 1,4 C -8,3 C
12.04.2010 09:31 1,8 C 99 % 1017 hPa 0,0 l/m 26,0 km/h (4 Bft) N22.5 5 0 min 7,33 klux 0,00 min 1,7 C -9,6 C
12.04.2010 09:47 1,9 C 99 % 1017 hPa 0,0 l/m 29,5 km/h (5 Bft) N-NO22.5 20 0 min 9,9 klux 0,00 min 1,8 C -10,6 C
12.04.2010 10:02 2,0 C 99 % 1017 hPa 0,0 l/m 26,5 km/h (4 Bft) N-NO67.5 15 0 min 11,0 klux 0,00 min 1,9 C -9,5 C
12.04.2010 10:16 2,1 C 99 % 1017 hPa 0,0 l/m 23,9 km/h (4 Bft) N-NO67.5 20 0 min 12,3 klux 0,00 min 2,0 C -8,5 C
12.04.2010 10:31 2,5 C 98 % 1017 hPa 0,0 l/m 26,0 km/h (4 Bft) N-NO22.5 25 0 min 17,6 klux 0,00 min 2,2 C -8,7 C
12.04.2010 10:46 2,8 C 97 % 1017 hPa 0,0 l/m 32,0 km/h (5 Bft) N-NO22.5 25 0 min 18,2 klux 0,00 min 2,4 C -10,0 C
12.04.2010 11:01 3,5 C 95 % 1017 hPa 0,0 l/m 26,6 km/h (4 Bft) NO45 35 0 min 31,5 klux 0,00 min 2,8 C -7,5 C
12.04.2010 11:16 3,7 C 91 % 1017 hPa 0,0 l/m 29,2 km/h (5 Bft) N-NO45 20 0 min 26,0 klux 0,00 min 2,4 C -8,0 C
12.04.2010 11:31 3,3 C 91 % 1017 hPa 0,0 l/m 38,1 km/h (5 Bft) N-NO45 25 0 min 16,6 klux 0,00 min 2,0 C -10,7 C
12.04.2010 11:47 3,0 C 92 % 1017 hPa 0,0 l/m 32,1 km/h (5 Bft) N-NO22.5 15 0 min 8,79 klux 0,00 min 1,8 C -9,7 C
12.04.2010 12:01 3,1 C 93 % 1017 hPa 0,0 l/m 28,5 km/h (4 Bft) N-NO22.5 30 0 min 13,3 klux 0,00 min 2,1 C -8,6 C
12.04.2010 12:16 3,5 C 91 % 1017 hPa 0,0 l/m 29,6 km/h (5 Bft) N-NO22.5 25 0 min 19,6 klux 0,00 min 2,2 C -8,4 C
12.04.2010 12:31 3,9 C 89 % 1017 hPa 0,0 l/m 25,5 km/h (4 Bft) N-NO22.5 20 0 min 24,7 klux 0,00 min 2,3 C -6,6 C
12.04.2010 12:46 3,9 C 88 % 1017 hPa 0,0 l/m 27,3 km/h (4 Bft) N-NO45 15 0 min 31,3 klux 0,00 min 2,1 C -7,2 C
12.04.2010 13:01 3,9 C 87 % 1017 hPa 0,0 l/m 29,7 km/h (5 Bft) N-NO22.5 15 0 min 14,5 klux 0,00 min 1,9 C -7,8 C
12.04.2010 13:16 4,5 C 87 % 1017 hPa 0,0 l/m 27,3 km/h (4 Bft) N-NO22.5 20 15 min 68,6 klux 0,00 min 2,5 C -6,3 C
12.04.2010 13:32 6,3 C 82 % 1017 hPa 0,0 l/m 30,5 km/h (5 Bft) N-NO22.5 25 16 min 84,7 klux 0,00 min 3,5 C -4,7 C
12.04.2010 13:47 6,4 C 78 % 1016 hPa 0,0 l/m 27,7 km/h (4 Bft) NO22.5 35 0 min 40,8 klux 0,00 min 2,8 C -3,8 C
12.04.2010 14:01 6,0 C 77 % 1017 hPa 0,0 l/m 34,1 km/h (5 Bft) N22.5 5 0 min 30,0 klux 0,00 min 2,3 C -5,9 C
12.04.2010 14:16 6,7 C 78 % 1017 hPa 0,0 l/m 29,6 km/h (5 Bft) N-NO22.5 15 0 min 48,7 klux 0,00 min 3,1 C -3,9 C
12.04.2010 14:31 7,1 C 75 % 1016 hPa 0,0 l/m 31,2 km/h (5 Bft) N-NO67.5 20 0 min 46,3 klux 0,00 min 3,0 C -3,7 C
12.04.2010 14:46 7,8 C 72 % 1016 hPa 0,0 l/m 34,6 km/h (5 Bft) N-NO67.5 15 15 min 83,0 klux 0,00 min 3,1 C -3,4 C
12.04.2010 15:01 7,7 C 75 % 1016 hPa 0,0 l/m 38,3 km/h (5 Bft) N-NO45 20 15 min 74,1 klux 0,00 min 3,6 C -4,2 C
12.04.2010 15:17 7,7 C 73 % 1016 hPa 0,0 l/m 32,5 km/h (5 Bft) N22.5 5 16 min 72,8 klux 0,00 min 3,2 C -3,1 C
12.04.2010 15:31 7,9 C 73 % 1015 hPa 0,0 l/m 41,0 km/h (6 Bft) N-NO22.5 15 14 min 68,7 klux 0,00 min 3,4 C -4,4 C
12.04.2010 15:46 8,5 C 70 % 1015 hPa 0,0 l/m 35,6 km/h (5 Bft) N67.5 10 15 min 66,3 klux 0,00 min 3,3 C -2,6 C
12.04.2010 16:01 7,9 C 70 % 1015 hPa 0,0 l/m 31,2 km/h (5 Bft) N22.5 10 0 min 15,5 klux 0,00 min 2,8 C -2,6 C
12.04.2010 16:16 7,4 C 74 % 1015 hPa 0,0 l/m 34,9 km/h (5 Bft) N-NO22.5 30 0 min 16,1 klux 0,00 min 3,1 C -4,1 C
12.04.2010 16:31 6,1 C 83 % 1016 hPa 0,3 l/m 36,7 km/h (5 Bft) N-NO22.5 20 0 min 5,25 klux 15,00 min 3,4 C -6,3 C
12.04.2010 16:47 5,6 C 88 % 1016 hPa 0,0 l/m 27,5 km/h (4 Bft) N-NO22.5 30 0 min 10,7 klux 0,00 min 3,8 C -4,9 C
12.04.2010 17:02 5,7 C 90 % 1015 hPa 0,3 l/m 21,5 km/h (4 Bft) N-NO22.5 25 0 min 21,5 klux 15,00 min 4,2 C -2,8 C
12.04.2010 17:16 5,7 C 90 % 1015 hPa 0,0 l/m 20,6 km/h (4 Bft) N-NO22.5 25 0 min 11,3 klux 0,00 min 4,2 C -2,5 C
12.04.2010 17:31 5,7 C 90 % 1015 hPa 0,0 l/m 21,7 km/h (4 Bft) N-NO22.5 20 0 min 12,3 klux 0,00 min 4,2 C -2,9 C
12.04.2010 17:46 5,5 C 91 % 1015 hPa 0,0 l/m 27,2 km/h (4 Bft) N-NO22.5 30 0 min 6,62 klux 0,00 min 4,2 C -4,9 C
12.04.2010 18:01 5,5 C 92 % 1015 hPa 0,3 l/m 22,3 km/h (4 Bft) NO22.5 35 0 min 7,23 klux 15,00 min 4,3 C -3,4 C
12.04.2010 18:16 5,4 C 92 % 1015 hPa 0,0 l/m 24,6 km/h (4 Bft) N-NO22.5 30 0 min 5,27 klux 0,00 min 4,2 C -4,3 C
12.04.2010 18:32 5,4 C 93 % 1015 hPa 0,0 l/m 27,3 km/h (4 Bft) N-NO22.5 30 0 min 8,06 klux 0,00 min 4,4 C -5,1 C
12.04.2010 18:47 5,6 C 93 % 1015 hPa 0,0 l/m 23,5 km/h (4 Bft) N-NO67.5 25 0 min 7,90 klux 0,00 min 4,6 C -3,6 C
12.04.2010 19:01 5,4 C 93 % 1015 hPa 0,0 l/m 23,6 km/h (4 Bft) NO45 35 0 min 6,17 klux 0,00 min 4,4 C -4,0 C
12.04.2010 19:16 5,2 C 93 % 1016 hPa 0,3 l/m 31,2 km/h (5 Bft) N-NO22.5 30 0 min 2,17 klux 15,00 min 4,2 C -6,4 C
12.04.2010 19:31 5,1 C 92 % 1016 hPa 0,0 l/m 31,8 km/h (5 Bft) N-NO67.5 20 0 min 1,13 klux 0,00 min 3,9 C -6,7 C
12.04.2010 19:46 4,8 C 93 % 1016 hPa 0,0 l/m 30,1 km/h (5 Bft) O-NO22.5 60 0 min 972 lux 0,00 min 3,8 C -6,7 C
12.04.2010 20:01 4,8 C 93 % 1016 hPa 0,0 l/m 25,5 km/h (4 Bft) NO45 45 0 min 520 lux 0,00 min 3,8 C -5,4 C
12.04.2010 20:17 4,7 C 93 % 1016 hPa 0,0 l/m 19,6 km/h (3 Bft) O-NO22.5 65 0 min 200 lux 0,00 min 3,7 C -3,4 C
12.04.2010 20:31 4,6 C 93 % 1016 hPa 0,0 l/m 25,1 km/h (4 Bft) NO45 50 0 min 68 lux 0,00 min 3,6 C -5,5 C
12.04.2010 20:46 4,5 C 93 % 1016 hPa 0,0 l/m 26,8 km/h (4 Bft) NO45 50 0 min 35 lux 0,00 min 3,5 C -6,2 C
12.04.2010 21:01 4,4 C 93 % 1016 hPa 0,0 l/m 28,3 km/h (4 Bft) NO45 55 0 min 9 lux 0,00 min 3,4 C -6,8 C
12.04.2010 21:16 4,3 C 94 % 1016 hPa 0,0 l/m 23,3 km/h (4 Bft) NO22.5 45 0 min 4 lux 0,00 min 3,4 C -5,3 C
12.04.2010 21:31 4,3 C 94 % 1016 hPa 0,0 l/m 22,3 km/h (4 Bft) NO22.5 35 0 min 0 lux 0,00 min 3,4 C -5,0 C
12.04.2010 21:47 4,3 C 94 % 1016 hPa 0,0 l/m 21,5 km/h (4 Bft) NO22.5 35 0 min 0 lux 0,00 min 3,4 C -4,7 C
12.04.2010 22:02 4,3 C 94 % 1016 hPa 0,0 l/m 30,5 km/h (5 Bft) N-NO22.5 30 0 min 0 lux 0,00 min 3,4 C -7,5 C
12.04.2010 22:16 4,4 C 93 % 1016 hPa 0,0 l/m 27,6 km/h (4 Bft) N-NO45 30 0 min 0 lux 0,00 min 3,4 C -6,6 C
12.04.2010 22:31 4,5 C 93 % 1016 hPa 0,0 l/m 34,6 km/h (5 Bft) N-NO22.5 25 0 min 0 lux 0,00 min 3,5 C -8,2 C
12.04.2010 22:46 4,4 C 93 % 1016 hPa 0,0 l/m 29,8 km/h (5 Bft) N-NO22.5 25 0 min 0 lux 0,00 min 3,4 C -7,2 C
12.04.2010 23:01 4,3 C 93 % 1016 hPa 0,0 l/m 28,9 km/h (5 Bft) N-NO22.5 30 0 min 0 lux 0,00 min 3,3 C -7,1 C
12.04.2010 23:16 4,0 C 94 % 1016 hPa 0,0 l/m 22,0 km/h (4 Bft) N-NO22.5 30 0 min 0 lux 0,00 min 3,1 C -5,2 C
12.04.2010 23:32 4,1 C 94 % 1016 hPa 0,0 l/m 20,8 km/h (4 Bft) NO22.5 35 0 min 0 lux 0,00 min 3,2 C -4,7 C
12.04.2010 23:47 4,1 C 93 % 1016 hPa 0,0 l/m 23,6 km/h (4 Bft) N-NO45 30 0 min 0 lux 0,00 min 3,1 C -5,7 C
_ Min-Zeit 02:16 15:46 15:31 - 03:31 - - - - - 02:01 01:31
Minimum _ 0,2 C 70 % 1015 hPa - 18,4 km/h (3 Bft) - - - - - -1,0 C -12,6 C
_ Max-Zeit 15:46 08:32 00:01 16:31 15:31 - - 13:32 13:32 16:31 18:47 17:16
Maximum _ 8,5 C 99 % 1020 hPa 0,3 l/m 41,0 km/h
N-NO (6 Bft)
- - 16 min 84,7 klux 15,00 min 4,6 C -2,5 C
Durchschnitt _ 3,3 C 91 % 1017 hPa #1,2 l/m 26,7 km/h (4 Bft) N-NO - #1:46 h 11,6 klux #1:00 h 1,9 C -7,6 C